Terminal Aerodrome Forecast
Issued by NWS

Home | Current Version | Previous Version | Text Only | Print | Product List | Glossary On
Versions: 1 2 3 4 5 6 7 8 9 10 11 12
000
FTUS44 KLIX 190520
TAFHUM
TAF
KHUM 190520Z 1906/2006 00000KT P6SM FEW110
     FM191500 32005KT P6SM SCT045 PROB30 1917/1923 4SM TSRA BKN025CB
     FM200200 22004KT P6SM SCT100=

USA.gov is the U.S. government's official web portal to all federal, state and local government web resources and services.